createdAt,value
2023-03-27T00:00:27.613Z,101102.13
2023-03-27T00:02:00.377Z,101240.75
2023-03-27T00:04:29.707Z,101250.22
2023-03-27T00:05:42.523Z,101098.09
2023-03-27T00:06:59.698Z,101250.72
2023-03-27T00:09:29.780Z,101255.31
2023-03-27T00:10:58.008Z,101104.16
2023-03-27T00:12:00.235Z,101259.41
2023-03-27T00:14:30.045Z,101257.97
2023-03-27T00:16:13.938Z,101102.91
2023-03-27T00:17:02.714Z,101255.09
2023-03-27T00:19:31.430Z,101258.97
2023-03-27T00:21:29.883Z,101111.97
2023-03-27T00:22:01.683Z,101271.09
2023-03-27T00:24:31.976Z,101274.25
2023-03-27T00:26:45.495Z,101125.88
2023-03-27T00:27:02.333Z,101273.53
2023-03-27T00:29:32.677Z,101282.25
2023-03-27T00:32:00.533Z,101131.41
2023-03-27T00:32:02.609Z,101278.13
2023-03-27T00:34:32.980Z,101282.72
2023-03-27T00:37:02.595Z,101288.06
2023-03-27T00:37:15.779Z,101142.06
2023-03-27T00:39:30.880Z,101291.97
2023-03-27T00:42:00.811Z,101298.00
2023-03-27T00:42:31.803Z,101147.84
2023-03-27T00:44:31.230Z,101300.44
2023-03-27T00:47:03.279Z,101299.75
2023-03-27T00:47:47.438Z,101153.13
2023-03-27T00:49:32.042Z,101299.75
2023-03-27T00:52:02.354Z,101310.41
2023-03-27T00:53:02.485Z,101152.63
2023-03-27T00:54:32.747Z,101306.28
2023-03-27T00:57:02.723Z,101307.53
2023-03-27T00:58:17.569Z,101158.19
2023-03-27T00:59:32.847Z,101312.84
2023-03-27T01:02:02.087Z,101311.41
2023-03-27T01:03:32.559Z,101161.72
2023-03-27T01:04:32.248Z,101312.63
2023-03-27T01:07:00.132Z,101314.56
2023-03-27T01:08:47.552Z,101166.00
2023-03-27T01:09:28.732Z,101317.75
2023-03-27T01:12:00.255Z,101328.41
2023-03-27T01:14:02.534Z,101177.84
2023-03-27T01:14:31.497Z,101325.00
2023-03-27T01:17:00.868Z,101324.28
2023-03-27T01:19:19.469Z,101181.38
2023-03-27T01:19:31.221Z,101331.53
2023-03-27T01:22:00.639Z,101341.50
2023-03-27T01:24:33.781Z,101334.72
2023-03-27T01:24:34.472Z,101189.50
2023-03-27T01:27:03.766Z,101333.50
2023-03-27T01:29:33.120Z,101346.81
2023-03-27T01:29:49.520Z,101190.00
2023-03-27T01:32:03.463Z,101350.69
2023-03-27T01:34:33.325Z,101350.69
2023-03-27T01:35:05.493Z,101206.91
2023-03-27T01:37:03.256Z,101348.03
2023-03-27T01:39:32.464Z,101354.63
2023-03-27T01:40:20.525Z,101209.69
2023-03-27T01:42:00.773Z,101359.94
2023-03-27T01:44:45.242Z,101369.34
2023-03-27T01:45:35.853Z,101221.28
2023-03-27T01:47:14.949Z,101375.19
2023-03-27T01:49:45.879Z,101390.44
2023-03-27T01:50:51.520Z,101246.81
2023-03-27T01:52:15.640Z,101399.66
2023-03-27T01:54:44.572Z,101400.88
2023-03-27T01:56:06.597Z,101262.13
2023-03-27T01:57:15.201Z,101407.69
2023-03-27T01:59:45.328Z,101411.31
2023-03-27T02:01:21.631Z,101257.28
2023-03-27T02:02:14.029Z,101398.50
2023-03-27T02:04:43.015Z,101397.75
2023-03-27T02:06:36.849Z,101235.09
2023-03-27T02:07:12.002Z,101388.81
2023-03-27T02:09:41.962Z,101384.22
2023-03-27T02:11:52.823Z,101240.94
2023-03-27T02:12:11.880Z,101388.09
2023-03-27T02:14:43.062Z,101393.41
2023-03-27T02:17:08.529Z,101242.69
2023-03-27T02:17:12.159Z,101395.59
2023-03-27T02:19:42.062Z,101398.03
2023-03-27T02:22:11.968Z,101394.88
2023-03-27T02:22:37.351Z,101244.22
2023-03-27T02:24:47.131Z,101391.97
2023-03-27T02:27:16.682Z,101400.22
2023-03-27T02:27:53.495Z,101260.38
2023-03-27T02:29:45.597Z,101410.88
2023-03-27T02:32:15.464Z,101412.06
2023-03-27T02:33:08.336Z,101259.63
2023-03-27T02:34:45.486Z,101410.63
2023-03-27T02:37:16.369Z,101413.09
2023-03-27T02:38:24.339Z,101268.72
2023-03-27T02:40:04.307Z,101414.50
2023-03-27T02:42:33.793Z,101418.63
2023-03-27T02:43:40.839Z,101266.72
2023-03-27T02:45:02.233Z,101407.97
2023-03-27T02:47:30.822Z,101415.75
2023-03-27T02:49:02.494Z,101268.72
2023-03-27T02:49:58.502Z,101421.06
2023-03-27T02:52:26.190Z,101426.41
2023-03-27T02:54:18.569Z,101282.09
2023-03-27T02:54:54.464Z,101424.94
2023-03-27T02:57:24.871Z,101431.72
2023-03-27T02:59:33.616Z,101289.66
2023-03-27T03:00:14.575Z,101434.88
2023-03-27T03:02:45.112Z,101441.66
2023-03-27T03:04:48.959Z,101291.72
2023-03-27T03:05:15.068Z,101443.34
2023-03-27T03:07:44.832Z,101442.63
2023-03-27T03:10:10.532Z,101304.31
2023-03-27T03:10:15.210Z,101447.22
2023-03-27T03:12:45.062Z,101440.47
2023-03-27T03:15:14.879Z,101450.41
2023-03-27T03:15:25.552Z,101303.53
2023-03-27T03:17:44.698Z,101453.78
2023-03-27T03:20:14.761Z,101467.09
2023-03-27T03:20:40.584Z,101330.81
2023-03-27T03:22:43.955Z,101485.25
2023-03-27T03:25:14.314Z,101487.44
2023-03-27T03:25:56.702Z,101342.69
2023-03-27T03:27:44.274Z,101497.59
2023-03-27T03:30:16.939Z,101493.22
2023-03-27T03:31:23.528Z,101354.28
2023-03-27T03:32:56.500Z,101499.97
2023-03-27T03:35:26.415Z,101495.38
2023-03-27T03:36:41.537Z,101354.06
2023-03-27T03:37:57.650Z,101509.66
2023-03-27T03:40:28.038Z,101509.91
2023-03-27T03:41:59.525Z,101368.97
2023-03-27T03:42:59.205Z,101511.56
2023-03-27T03:45:30.879Z,101505.22
2023-03-27T03:47:14.552Z,101367.97
2023-03-27T03:48:01.492Z,101506.19
2023-03-27T03:50:31.040Z,101525.31
2023-03-27T03:52:29.516Z,101384.09
2023-03-27T03:52:59.406Z,101533.50
2023-03-27T03:55:29.315Z,101537.16
2023-03-27T03:57:44.532Z,101396.97
2023-03-27T03:57:59.303Z,101536.16
2023-03-27T04:00:30.985Z,101551.16
2023-03-27T04:03:02.366Z,101551.38
2023-03-27T04:03:05.930Z,101400.00
2023-03-27T04:05:35.526Z,101553.03
2023-03-27T04:08:05.970Z,101543.84
2023-03-27T04:08:21.532Z,101401.94
2023-03-27T04:11:05.282Z,101546.72
2023-03-27T04:13:45.561Z,101399.63
2023-03-27T04:13:58.104Z,101556.41
2023-03-27T04:16:34.096Z,101563.66
2023-03-27T04:19:12.372Z,101563.84
2023-03-27T04:19:18.669Z,101418.00
2023-03-27T04:21:43.012Z,101565.09
2023-03-27T04:24:11.389Z,101568.97
2023-03-27T04:24:40.570Z,101421.78
2023-03-27T04:26:47.186Z,101571.41
2023-03-27T04:29:26.348Z,101575.28
2023-03-27T04:29:56.665Z,101429.84
2023-03-27T04:31:59.144Z,101572.59
2023-03-27T04:34:40.953Z,101577.94
2023-03-27T04:35:11.530Z,101422.00
2023-03-27T04:37:24.135Z,101565.63
2023-03-27T04:40:21.618Z,101570.22
2023-03-27T04:40:39.535Z,101421.25
2023-03-27T04:42:50.082Z,101572.66
2023-03-27T04:45:18.981Z,101585.28
2023-03-27T04:46:01.556Z,101439.41
2023-03-27T04:47:51.329Z,101586.50
2023-03-27T04:50:20.746Z,101585.03
2023-03-27T04:51:16.549Z,101445.47
2023-03-27T04:52:50.418Z,101588.22
2023-03-27T04:55:21.927Z,101586.03
2023-03-27T04:56:31.579Z,101447.97
2023-03-27T04:57:51.283Z,101595.22
2023-03-27T05:00:21.470Z,101593.06
2023-03-27T05:01:46.563Z,101464.13
2023-03-27T05:03:10.800Z,101597.69
2023-03-27T05:05:53.647Z,101603.00
2023-03-27T05:07:17.513Z,101461.84
2023-03-27T05:08:23.262Z,101602.78
2023-03-27T05:10:52.081Z,101605.44
2023-03-27T05:12:32.551Z,101464.59
2023-03-27T05:13:22.060Z,101609.81
2023-03-27T05:15:52.164Z,101617.09
2023-03-27T05:17:47.353Z,101477.00
2023-03-27T05:18:32.752Z,101618.31
2023-03-27T05:21:02.033Z,101623.41
2023-03-27T05:23:04.641Z,101479.75
2023-03-27T05:23:30.495Z,101616.66
2023-03-27T05:26:01.565Z,101628.72
2023-03-27T05:28:19.646Z,101485.00
2023-03-27T05:28:48.487Z,101625.84
2023-03-27T05:31:18.733Z,101635.06
2023-03-27T05:33:34.900Z,101491.34
2023-03-27T05:34:01.723Z,101640.38
2023-03-27T05:36:33.779Z,101638.91
2023-03-27T05:38:57.566Z,101498.13
2023-03-27T05:39:03.770Z,101645.72
2023-03-27T05:41:44.130Z,101638.91
2023-03-27T05:44:17.826Z,101500.13
2023-03-27T05:44:32.288Z,101637.72
2023-03-27T05:47:02.114Z,101650.31
2023-03-27T05:49:34.155Z,101658.31
2023-03-27T05:49:53.507Z,101506.97
2023-03-27T05:52:13.252Z,101656.38
2023-03-27T05:54:43.220Z,101651.75
2023-03-27T05:55:08.565Z,101510.22
2023-03-27T05:57:13.223Z,101659.03
2023-03-27T05:59:44.133Z,101651.06
2023-03-27T06:00:39.530Z,101518.56
2023-03-27T06:02:24.963Z,101663.16
2023-03-27T06:04:58.396Z,101660.00
2023-03-27T06:06:00.507Z,101517.03
2023-03-27T06:07:31.720Z,101672.84
2023-03-27T06:10:06.715Z,101668.94
2023-03-27T06:11:32.543Z,101520.78
2023-03-27T06:13:20.778Z,101667.75
2023-03-27T06:15:53.097Z,101667.97
2023-03-27T06:16:47.548Z,101524.03
2023-03-27T06:18:53.631Z,101667.22
2023-03-27T06:21:24.689Z,101674.72
2023-03-27T06:22:21.611Z,101528.09
2023-03-27T06:24:00.610Z,101682.97
2023-03-27T06:26:30.567Z,101680.53
2023-03-27T06:27:36.980Z,101537.66
2023-03-27T06:29:08.121Z,101688.78
2023-03-27T06:31:46.041Z,101687.78
2023-03-27T06:32:52.319Z,101540.16
2023-03-27T06:34:31.424Z,101690.66
2023-03-27T06:37:14.175Z,101682.19
2023-03-27T06:38:10.866Z,101554.03
2023-03-27T06:39:43.721Z,101689.69
2023-03-27T06:42:12.768Z,101692.09
2023-03-27T06:43:26.548Z,101553.25
2023-03-27T06:44:51.558Z,101690.63
2023-03-27T06:47:51.656Z,101695.69
2023-03-27T06:48:49.548Z,101556.03
2023-03-27T06:50:34.280Z,101705.81
2023-03-27T06:53:05.925Z,101704.34
2023-03-27T06:54:05.559Z,101555.75
2023-03-27T06:55:45.003Z,101708.94
2023-03-27T06:58:15.848Z,101705.78
2023-03-27T06:59:24.545Z,101573.66
2023-03-27T07:00:43.767Z,101714.00
2023-03-27T07:03:17.927Z,101716.16
2023-03-27T07:04:51.089Z,101569.34
2023-03-27T07:06:00.543Z,101718.09
2023-03-27T07:08:38.444Z,101726.75
2023-03-27T07:10:16.574Z,101582.97
2023-03-27T07:11:12.370Z,101722.34
2023-03-27T07:13:49.453Z,101736.81
2023-03-27T07:15:31.320Z,101586.19
2023-03-27T07:16:24.527Z,101732.41
2023-03-27T07:18:54.633Z,101734.75
2023-03-27T07:20:46.349Z,101596.53
2023-03-27T07:21:24.389Z,101738.78
2023-03-27T07:23:56.737Z,101745.22
2023-03-27T07:26:04.570Z,101601.31
2023-03-27T07:26:32.933Z,101746.59
2023-03-27T07:29:08.072Z,101750.41
2023-03-27T07:31:55.583Z,101606.13
2023-03-27T07:31:55.910Z,101754.16
2023-03-27T07:34:37.332Z,101755.50
2023-03-27T07:37:12.608Z,101756.81
2023-03-27T07:37:17.555Z,101616.47
2023-03-27T07:39:52.325Z,101764.75
2023-03-27T07:42:25.134Z,101765.81
2023-03-27T07:42:51.548Z,101625.00
2023-03-27T07:45:04.450Z,101765.19
2023-03-27T07:47:34.043Z,101759.66
2023-03-27T07:48:06.631Z,101614.38
2023-03-27T07:50:04.705Z,101766.81
2023-03-27T07:52:34.698Z,101773.47
2023-03-27T07:53:33.928Z,101628.72
2023-03-27T07:55:06.097Z,101777.91
2023-03-27T07:57:57.987Z,101775.31
2023-03-27T07:58:56.582Z,101627.97
2023-03-27T08:00:28.837Z,101776.75
2023-03-27T08:03:07.910Z,101783.16
2023-03-27T08:04:11.666Z,101631.25
2023-03-27T08:05:40.527Z,101784.31
2023-03-27T08:08:12.757Z,101777.59
2023-03-27T08:09:40.555Z,101640.81
2023-03-27T08:10:56.618Z,101780.94
2023-03-27T08:13:29.892Z,101776.97
2023-03-27T08:14:55.516Z,101638.50
2023-03-27T08:16:02.468Z,101787.97
2023-03-27T08:18:32.480Z,101786.72
2023-03-27T08:20:11.634Z,101640.25
2023-03-27T08:21:02.156Z,101784.75
2023-03-27T08:23:33.908Z,101784.81
2023-03-27T08:25:29.593Z,101652.56
2023-03-27T08:26:24.878Z,101794.16
2023-03-27T08:28:58.060Z,101802.75
2023-03-27T08:30:49.569Z,101652.31
2023-03-27T08:31:30.178Z,101802.44
2023-03-27T08:34:01.433Z,101799.25
2023-03-27T08:36:04.604Z,101653.25
2023-03-27T08:36:40.975Z,101805.41
2023-03-27T08:39:09.822Z,101812.28
2023-03-27T08:41:19.532Z,101673.44
2023-03-27T08:42:04.948Z,101826.47
2023-03-27T08:44:34.522Z,101824.19
2023-03-27T08:46:47.634Z,101683.00
2023-03-27T08:47:08.268Z,101838.88
2023-03-27T08:49:44.455Z,101840.44
2023-03-27T08:52:02.853Z,101699.38
2023-03-27T08:52:43.246Z,101846.59
2023-03-27T08:55:19.433Z,101847.13
2023-03-27T08:57:20.667Z,101699.09
2023-03-27T08:58:03.178Z,101848.75
2023-03-27T09:00:32.218Z,101853.66
2023-03-27T09:02:40.412Z,101703.41
2023-03-27T09:03:25.352Z,101855.25
2023-03-27T09:05:54.833Z,101856.50
2023-03-27T09:08:03.536Z,101710.47
2023-03-27T09:08:24.990Z,101864.97
2023-03-27T09:10:55.009Z,101868.75
2023-03-27T09:13:18.583Z,101717.56
2023-03-27T09:13:48.252Z,101871.56
2023-03-27T09:16:21.700Z,101873.63
2023-03-27T09:18:35.617Z,101723.56
2023-03-27T09:18:55.992Z,101881.38
2023-03-27T09:21:28.136Z,101877.38
2023-03-27T09:23:56.522Z,101725.31
2023-03-27T09:23:59.972Z,101875.25
2023-03-27T09:26:55.249Z,101883.09
2023-03-27T09:29:43.613Z,101733.81
2023-03-27T09:29:44.652Z,101880.88
2023-03-27T09:32:35.996Z,101885.28
2023-03-27T09:35:03.948Z,101878.28
2023-03-27T09:35:19.052Z,101733.53
2023-03-27T09:37:34.561Z,101882.75
2023-03-27T09:40:06.966Z,101877.97
2023-03-27T09:40:34.558Z,101732.47
2023-03-27T09:42:37.009Z,101884.66
2023-03-27T09:45:07.161Z,101882.66
2023-03-27T09:45:49.544Z,101724.88
2023-03-27T09:47:53.773Z,101888.53
2023-03-27T09:50:27.890Z,101891.44
2023-03-27T09:51:05.589Z,101743.19
2023-03-27T09:53:04.662Z,101918.97
2023-03-27T09:55:43.581Z,101922.00
2023-03-27T09:56:23.584Z,101771.13
2023-03-27T09:58:12.987Z,101920.94
2023-03-27T10:00:43.717Z,101925.97
2023-03-27T10:01:39.438Z,101772.84
2023-03-27T10:03:14.167Z,101928.38
2023-03-27T10:05:49.811Z,101928.72
2023-03-27T10:06:59.556Z,101780.88
2023-03-27T10:08:19.408Z,101934.81
2023-03-27T10:11:04.294Z,101926.91
2023-03-27T10:12:44.621Z,101787.19
2023-03-27T10:13:54.944Z,101931.75
2023-03-27T10:16:26.740Z,101926.50
2023-03-27T10:17:59.326Z,101774.38
2023-03-27T10:19:03.848Z,101931.56
2023-03-27T10:21:39.410Z,101936.13
2023-03-27T10:23:14.640Z,101776.19
2023-03-27T10:24:10.150Z,101933.44
2023-03-27T10:27:02.922Z,101936.53
2023-03-27T10:28:29.562Z,101779.72
2023-03-27T10:29:32.284Z,101930.63
2023-03-27T10:32:00.318Z,101930.94
2023-03-27T10:34:07.604Z,101778.97
2023-03-27T10:34:47.547Z,101931.19
2023-03-27T10:37:34.482Z,101933.66
2023-03-27T10:39:48.614Z,101775.91
2023-03-27T10:40:21.220Z,101934.28
2023-03-27T10:42:54.991Z,101930.44
2023-03-27T10:45:12.582Z,101783.75
2023-03-27T10:45:25.899Z,101942.66
2023-03-27T10:48:00.202Z,101947.72
2023-03-27T10:50:28.569Z,101788.53
2023-03-27T10:50:34.434Z,101952.59
2023-03-27T10:53:04.126Z,101939.56
2023-03-27T10:55:38.898Z,101948.13
2023-03-27T10:55:43.903Z,101786.53
2023-03-27T10:58:10.892Z,101937.63
2023-03-27T11:00:41.583Z,101950.16
2023-03-27T11:01:01.678Z,101791.47
2023-03-27T11:03:11.997Z,101954.81
2023-03-27T11:05:40.563Z,101956.44
2023-03-27T11:06:16.353Z,101789.66
2023-03-27T11:08:15.116Z,101953.66
2023-03-27T11:10:45.492Z,101959.44
2023-03-27T11:11:31.508Z,101793.97
2023-03-27T11:13:23.351Z,101952.25
2023-03-27T11:15:58.213Z,101952.63
2023-03-27T11:16:46.422Z,101797.97
2023-03-27T11:18:57.186Z,101953.22
2023-03-27T11:21:26.760Z,101954.66
2023-03-27T11:22:30.640Z,101785.09
2023-03-27T11:23:59.723Z,101946.09
2023-03-27T11:26:46.407Z,101945.16
2023-03-27T11:27:48.689Z,101789.06
2023-03-27T11:29:17.025Z,101951.75
2023-03-27T11:31:50.782Z,101944.09
2023-03-27T11:33:08.389Z,101800.94
2023-03-27T11:34:38.973Z,101960.03
2023-03-27T11:37:43.966Z,101966.22
2023-03-27T11:38:23.435Z,101800.16
2023-03-27T11:40:15.659Z,101960.50
2023-03-27T11:42:44.381Z,101966.09
2023-03-27T11:43:38.517Z,101801.13
2023-03-27T11:45:13.710Z,101967.38
2023-03-27T11:47:45.423Z,101968.25
2023-03-27T11:49:13.685Z,101815.94
2023-03-27T11:50:16.388Z,101973.09
2023-03-27T11:52:46.865Z,101986.47
2023-03-27T11:54:29.582Z,101819.94
2023-03-27T11:55:22.224Z,101982.94
2023-03-27T11:57:52.290Z,101988.53
2023-03-27T11:59:47.550Z,101843.84
2023-03-27T12:00:31.124Z,102011.97
2023-03-27T12:03:01.090Z,102019.81
2023-03-27T12:05:03.568Z,101878.50
2023-03-27T12:05:30.666Z,102039.44
2023-03-27T12:08:02.473Z,102055.69
2023-03-27T12:10:29.026Z,101884.75
2023-03-27T12:10:32.639Z,102031.94
2023-03-27T12:13:19.708Z,102028.13
2023-03-27T12:15:49.600Z,101874.41
2023-03-27T12:15:49.608Z,102025.41
2023-03-27T12:18:19.092Z,102023.25
2023-03-27T12:20:53.684Z,102013.56
2023-03-27T12:21:07.544Z,101872.22
2023-03-27T12:23:27.287Z,102019.69
2023-03-27T12:26:20.870Z,102012.13
2023-03-27T12:26:26.847Z,101866.19
2023-03-27T12:28:59.574Z,102011.41
2023-03-27T12:31:41.133Z,102008.19
2023-03-27T12:32:02.638Z,101860.63
2023-03-27T12:34:11.156Z,102008.19
2023-03-27T12:36:40.473Z,102014.50
2023-03-27T12:37:17.597Z,101860.63
2023-03-27T12:39:10.116Z,102010.91
2023-03-27T12:41:39.032Z,102005.28
2023-03-27T12:42:32.531Z,101852.31
2023-03-27T12:44:18.716Z,101999.91
2023-03-27T12:46:51.543Z,101993.38
2023-03-27T12:48:01.924Z,101847.75
2023-03-27T12:49:21.912Z,102008.84
2023-03-27T12:51:58.017Z,102011.59
2023-03-27T12:53:19.600Z,101885.03
2023-03-27T12:54:46.024Z,102022.94
2023-03-27T12:57:38.895Z,102036.69
2023-03-27T12:58:38.708Z,101882.91
2023-03-27T13:00:09.707Z,102039.69
2023-03-27T13:02:39.375Z,102047.06
2023-03-27T13:03:53.755Z,101890.94
2023-03-27T13:05:16.382Z,102044.59
2023-03-27T13:07:54.711Z,102047.84
2023-03-27T13:09:09.309Z,101894.34
2023-03-27T13:10:54.736Z,102043.47
2023-03-27T13:13:24.784Z,102053.78
2023-03-27T13:14:32.357Z,101895.59
2023-03-27T13:15:53.486Z,102057.09
2023-03-27T13:18:30.159Z,102048.44
2023-03-27T13:19:53.546Z,101904.97
2023-03-27T13:20:59.759Z,102052.03
2023-03-27T13:23:28.091Z,102058.28
2023-03-27T13:25:09.560Z,101894.63
2023-03-27T13:25:56.465Z,102056.38
2023-03-27T13:28:32.133Z,102050.41
2023-03-27T13:30:24.557Z,101896.94
2023-03-27T13:31:09.559Z,102056.72
2023-03-27T13:34:07.363Z,102061.28
2023-03-27T13:35:48.735Z,101910.81
2023-03-27T13:36:36.360Z,102070.09
2023-03-27T13:39:06.262Z,102063.69
2023-03-27T13:41:06.857Z,101906.03
2023-03-27T13:41:37.054Z,102057.88
2023-03-27T13:44:14.434Z,102064.97
2023-03-27T13:46:23.592Z,101913.09
2023-03-27T13:46:45.101Z,102068.81
2023-03-27T13:49:16.002Z,102078.69
2023-03-27T13:51:48.563Z,101908.47
2023-03-27T13:51:51.174Z,102070.03
2023-03-27T13:54:21.061Z,102068.19
2023-03-27T13:56:51.854Z,102068.38
2023-03-27T13:57:04.611Z,101920.81
2023-03-27T13:59:41.014Z,102087.78
2023-03-27T14:02:16.006Z,102089.81
2023-03-27T14:02:26.714Z,101924.06
2023-03-27T14:04:47.272Z,102082.94
2023-03-27T14:07:17.387Z,102071.53
2023-03-27T14:07:49.636Z,101927.59
2023-03-27T14:09:59.483Z,102072.69
2023-03-27T14:12:39.709Z,102080.81
2023-03-27T14:13:11.006Z,101923.13
2023-03-27T14:15:16.133Z,102089.72
2023-03-27T14:17:55.935Z,102073.00
2023-03-27T14:18:32.602Z,101919.88
2023-03-27T14:20:25.840Z,102079.31
2023-03-27T14:22:54.525Z,102070.13
2023-03-27T14:23:47.605Z,101906.81
2023-03-27T14:25:28.386Z,102064.97
2023-03-27T14:28:09.709Z,102065.31
2023-03-27T14:29:22.644Z,101910.59
2023-03-27T14:30:40.316Z,102076.34
2023-03-27T14:33:25.418Z,102066.84
2023-03-27T14:34:51.049Z,101907.06
2023-03-27T14:35:57.921Z,102062.00
2023-03-27T14:38:35.306Z,102067.03
2023-03-27T14:40:22.571Z,101913.38
2023-03-27T14:41:05.408Z,102067.28
2023-03-27T14:43:52.313Z,102071.66
2023-03-27T14:45:39.458Z,101914.63
2023-03-27T14:46:21.356Z,102065.69
2023-03-27T14:48:49.900Z,102076.16
2023-03-27T14:50:54.463Z,101915.88
2023-03-27T14:51:21.149Z,102083.28
2023-03-27T14:53:51.075Z,102079.53
2023-03-27T14:56:10.657Z,101932.50
2023-03-27T14:56:30.624Z,102081.44
2023-03-27T14:59:03.940Z,102084.09
2023-03-27T15:01:34.616Z,101933.28
2023-03-27T15:01:45.503Z,102087.31
2023-03-27T15:04:15.038Z,102091.59
2023-03-27T15:06:46.446Z,102104.84
2023-03-27T15:06:49.616Z,101943.59
2023-03-27T15:09:27.335Z,102110.31
2023-03-27T15:12:19.237Z,102135.41
2023-03-27T15:12:24.399Z,101972.19
2023-03-27T15:14:48.092Z,102136.81
2023-03-27T15:17:19.038Z,102129.00
2023-03-27T15:17:40.087Z,101968.09
2023-03-27T15:19:47.817Z,102119.97
2023-03-27T15:22:17.823Z,102121.72
2023-03-27T15:22:59.600Z,101957.94
2023-03-27T15:24:48.344Z,102122.50
2023-03-27T15:27:18.028Z,102124.00
2023-03-27T15:28:15.610Z,101966.09
2023-03-27T15:29:48.281Z,102123.78
2023-03-27T15:32:17.209Z,102125.00
2023-03-27T15:33:31.581Z,101963.63
2023-03-27T15:34:46.775Z,102121.75
2023-03-27T15:37:17.394Z,102118.91
2023-03-27T15:38:46.600Z,101963.88
2023-03-27T15:39:48.026Z,102122.00
2023-03-27T15:42:18.376Z,102118.13
2023-03-27T15:44:03.067Z,101959.63
2023-03-27T15:44:48.794Z,102122.47
2023-03-27T15:47:18.386Z,102122.66
2023-03-27T15:49:18.949Z,101968.22
2023-03-27T15:49:47.641Z,102110.69
2023-03-27T15:52:17.056Z,102121.31
2023-03-27T15:54:34.965Z,101968.69
2023-03-27T15:54:47.500Z,102126.56
2023-03-27T15:57:16.823Z,102127.41
2023-03-27T15:59:52.532Z,102128.19
2023-03-27T15:59:52.577Z,101977.75
2023-03-27T16:02:23.629Z,102137.06
2023-03-27T16:04:53.139Z,102129.84
2023-03-27T16:05:08.621Z,101981.00
2023-03-27T16:07:21.943Z,102137.25
2023-03-27T16:09:52.381Z,102142.19
2023-03-27T16:10:23.587Z,101985.78
2023-03-27T16:12:23.364Z,102139.31
2023-03-27T16:14:53.202Z,102147.13
2023-03-27T16:15:38.587Z,101987.03
2023-03-27T16:17:22.630Z,102138.91
2023-03-27T16:19:52.550Z,102149.91
2023-03-27T16:20:53.552Z,102001.63
2023-03-27T16:22:21.925Z,102164.88
2023-03-27T16:24:52.155Z,102165.44
2023-03-27T16:26:08.570Z,102012.72
2023-03-27T16:27:22.406Z,102166.03
2023-03-27T16:29:52.653Z,102168.19
2023-03-27T16:31:23.688Z,102016.28
2023-03-27T16:32:22.950Z,102170.94
2023-03-27T16:34:53.154Z,102175.88
2023-03-27T16:36:38.667Z,102019.03
2023-03-27T16:37:23.061Z,102167.19
2023-03-27T16:39:52.096Z,102170.19
2023-03-27T16:41:53.554Z,102015.97
2023-03-27T16:42:22.594Z,102176.03
2023-03-27T16:44:54.751Z,102174.13
2023-03-27T16:47:08.618Z,102024.59
2023-03-27T16:47:24.862Z,102172.28
2023-03-27T16:50:10.220Z,102177.19
2023-03-27T16:52:23.554Z,102027.34
2023-03-27T16:52:40.387Z,102173.84
2023-03-27T16:55:10.741Z,102182.91
2023-03-27T16:57:38.661Z,102031.34
2023-03-27T16:57:41.090Z,102175.84
2023-03-27T17:00:11.432Z,102182.25
2023-03-27T17:02:41.368Z,102182.03
2023-03-27T17:02:53.881Z,102039.97
2023-03-27T17:05:11.540Z,102197.16
2023-03-27T17:07:39.917Z,102197.44
2023-03-27T17:08:09.931Z,102041.97
2023-03-27T17:10:08.848Z,102199.91
2023-03-27T17:12:37.354Z,102198.00
2023-03-27T17:13:25.618Z,102040.91
2023-03-27T17:15:06.352Z,102203.44
2023-03-27T17:17:35.428Z,102207.09
2023-03-27T17:18:40.578Z,102044.44
2023-03-27T17:20:06.228Z,102208.63
2023-03-27T17:22:36.559Z,102216.19
2023-03-27T17:23:55.598Z,102062.13
2023-03-27T17:25:05.244Z,102220.63
2023-03-27T17:27:35.889Z,102217.00
2023-03-27T17:29:10.597Z,102074.00
2023-03-27T17:30:06.243Z,102238.19
2023-03-27T17:32:36.159Z,102237.00
2023-03-27T17:34:25.622Z,102088.59
2023-03-27T17:35:05.109Z,102242.66
2023-03-27T17:37:34.539Z,102241.47
2023-03-27T17:39:40.616Z,102091.06
2023-03-27T17:40:05.350Z,102245.63
2023-03-27T17:42:35.182Z,102248.09
2023-03-27T17:44:55.380Z,102096.63
2023-03-27T17:45:08.184Z,102255.66
2023-03-27T17:47:37.472Z,102259.31
2023-03-27T17:50:06.458Z,102265.69
2023-03-27T17:50:10.624Z,102101.41
2023-03-27T17:52:35.879Z,102265.22
2023-03-27T17:55:06.207Z,102268.88
2023-03-27T17:55:25.724Z,102108.59
2023-03-27T17:57:36.309Z,102276.44
2023-03-27T18:00:07.279Z,102269.44
2023-03-27T18:00:40.607Z,102113.22
2023-03-27T18:02:39.922Z,102273.09
2023-03-27T18:05:08.933Z,102270.19
2023-03-27T18:05:57.047Z,102120.31
2023-03-27T18:07:37.720Z,102278.00
2023-03-27T18:10:07.109Z,102269.25
2023-03-27T18:11:12.697Z,102121.81
2023-03-27T18:12:37.469Z,102280.69
2023-03-27T18:15:08.008Z,102283.88
2023-03-27T18:16:27.643Z,102123.38
2023-03-27T18:17:37.421Z,102281.19
2023-03-27T18:20:07.936Z,102286.53
2023-03-27T18:21:42.352Z,102127.94
2023-03-27T18:22:38.287Z,102284.84
2023-03-27T18:25:08.599Z,102284.84
2023-03-27T18:26:57.578Z,102135.03
2023-03-27T18:27:38.943Z,102298.00
2023-03-27T18:30:08.171Z,102292.94
2023-03-27T18:32:12.608Z,102141.38
2023-03-27T18:32:36.885Z,102298.75
2023-03-27T18:35:07.111Z,102287.81
2023-03-27T18:37:27.615Z,102138.13
2023-03-27T18:37:36.898Z,102294.41
2023-03-27T18:40:06.354Z,102298.78
2023-03-27T18:42:36.271Z,102295.13
2023-03-27T18:42:42.426Z,102138.13
2023-03-27T18:45:05.175Z,102304.41
2023-03-27T18:47:34.522Z,102297.59
2023-03-27T18:47:57.668Z,102147.22
2023-03-27T18:50:04.953Z,102298.81
2023-03-27T18:52:35.662Z,102302.47
2023-03-27T18:53:12.554Z,102149.50
2023-03-27T18:55:05.066Z,102306.38
2023-03-27T18:57:34.868Z,102308.09
2023-03-27T18:58:27.523Z,102152.56
2023-03-27T19:00:04.031Z,102308.81
2023-03-27T19:02:32.573Z,102303.72
2023-03-27T19:03:42.606Z,102148.56
2023-03-27T19:05:00.989Z,102310.75
2023-03-27T19:07:30.131Z,102314.66
2023-03-27T19:08:57.617Z,102156.88
2023-03-27T19:09:58.650Z,102308.84
2023-03-27T19:12:36.995Z,102319.78
2023-03-27T19:14:12.713Z,102158.53
2023-03-27T19:15:34.274Z,102316.84
2023-03-27T19:18:04.092Z,102321.97
2023-03-27T19:19:46.737Z,102167.41
2023-03-27T19:20:52.623Z,102318.84
2023-03-27T19:23:42.015Z,102327.13
2023-03-27T19:25:12.565Z,102167.97
2023-03-27T19:26:11.751Z,102318.13
2023-03-27T19:28:43.211Z,102321.03
2023-03-27T19:30:27.632Z,102166.38
2023-03-27T19:31:12.845Z,102325.44
2023-03-27T19:33:41.305Z,102322.28
2023-03-27T19:35:42.601Z,102169.00
2023-03-27T19:36:10.162Z,102322.06
2023-03-27T19:38:40.135Z,102323.00
2023-03-27T19:40:57.894Z,102171.13
2023-03-27T19:41:10.543Z,102318.66
2023-03-27T19:43:40.934Z,102316.44